sensor_id;sensor_type;location;lat;lon;timestamp;pressure;altitude;pressure_sealevel;temperature
13219;BMP180;6674;49.152;11.918;2023-05-10T00:00:39;95347.56;;;16.05
13219;BMP180;6674;49.152;11.918;2023-05-10T00:03:06;95349.91;;;16.07
13219;BMP180;6674;49.152;11.918;2023-05-10T00:05:32;95347.81;;;16.09
13219;BMP180;6674;49.152;11.918;2023-05-10T00:07:59;95330.91;;;16.11
13219;BMP180;6674;49.152;11.918;2023-05-10T00:10:27;95336.63;;;16.08
13219;BMP180;6674;49.152;11.918;2023-05-10T00:12:54;95330.63;;;16.13
13219;BMP180;6674;49.152;11.918;2023-05-10T00:15:20;95332.47;;;16.02
13219;BMP180;6674;49.152;11.918;2023-05-10T00:17:47;95332.47;;;16.07
13219;BMP180;6674;49.152;11.918;2023-05-10T00:20:14;95326.75;;;16.05
13219;BMP180;6674;49.152;11.918;2023-05-10T00:22:41;95323.66;;;15.98
13219;BMP180;6674;49.152;11.918;2023-05-10T00:25:08;95324.69;;;15.97
13219;BMP180;6674;49.152;11.918;2023-05-10T00:27:36;95317.66;;;15.98
13219;BMP180;6674;49.152;11.918;2023-05-10T00:30:04;95316.09;;;16.02
13219;BMP180;6674;49.152;11.918;2023-05-10T00:32:31;95318.94;;;16.05
13219;BMP180;6674;49.152;11.918;2023-05-10T00:34:58;95327.81;;;16.04
13219;BMP180;6674;49.152;11.918;2023-05-10T00:37:25;95320.00;;;16.04
13219;BMP180;6674;49.152;11.918;2023-05-10T00:39:51;95317.13;;;16.01
13219;BMP180;6674;49.152;11.918;2023-05-10T00:42:18;95315.84;;;15.98
13219;BMP180;6674;49.152;11.918;2023-05-10T00:44:46;95309.59;;;15.95
13219;BMP180;6674;49.152;11.918;2023-05-10T00:47:13;95316.38;;;15.96
13219;BMP180;6674;49.152;11.918;2023-05-10T00:49:40;95316.88;;;15.93
13219;BMP180;6674;49.152;11.918;2023-05-10T00:52:08;95307.53;;;15.92
13219;BMP180;6674;49.152;11.918;2023-05-10T00:54:35;95311.69;;;15.93
13219;BMP180;6674;49.152;11.918;2023-05-10T00:57:02;95317.69;;;15.93
13219;BMP180;6674;49.152;11.918;2023-05-10T00:59:29;95309.59;;;15.95
13219;BMP180;6674;49.152;11.918;2023-05-10T01:01:57;95313.75;;;15.96
13219;BMP180;6674;49.152;11.918;2023-05-10T01:04:24;95313.75;;;15.96
13219;BMP180;6674;49.152;11.918;2023-05-10T01:06:52;95313.50;;;15.97
13219;BMP180;6674;49.152;11.918;2023-05-10T01:09:19;95311.16;;;15.96
13219;BMP180;6674;49.152;11.918;2023-05-10T01:11:46;95307.53;;;15.92
13219;BMP180;6674;49.152;11.918;2023-05-10T01:14:14;95313.50;;;15.92
13219;BMP180;6674;49.152;11.918;2023-05-10T01:16:44;95321.06;;;15.94
13219;BMP180;6674;49.152;11.918;2023-05-10T01:19:18;95317.38;;;15.95
13219;BMP180;6674;49.152;11.918;2023-05-10T01:21:49;95313.75;;;15.96
13219;BMP180;6674;49.152;11.918;2023-05-10T01:24:38;95304.94;;;15.97
13219;BMP180;6674;49.152;11.918;2023-05-10T01:30:44;95320.53;;;15.97
13219;BMP180;6674;49.152;11.918;2023-05-10T01:33:18;95317.13;;;15.91
13219;BMP180;6674;49.152;11.918;2023-05-10T01:35:51;95325.19;;;15.90
13219;BMP180;6674;49.152;11.918;2023-05-10T01:38:25;95326.78;;;15.86
13219;BMP180;6674;49.152;11.918;2023-05-10T01:41:03;95327.31;;;15.83
13219;BMP180;6674;49.152;11.918;2023-05-10T01:43:39;95334.59;;;15.81
13219;BMP180;6674;49.152;11.918;2023-05-10T01:46:12;95333.81;;;15.80
13219;BMP180;6674;49.152;11.918;2023-05-10T01:48:47;95333.03;;;15.80
13219;BMP180;6674;49.152;11.918;2023-05-10T01:51:18;95335.63;;;15.80
13219;BMP180;6674;49.152;11.918;2023-05-10T01:53:47;95334.59;;;15.81
13219;BMP180;6674;49.152;11.918;2023-05-10T01:56:15;95333.03;;;15.80
13219;BMP180;6674;49.152;11.918;2023-05-10T01:58:44;95326.28;;;15.79
13219;BMP180;6674;49.152;11.918;2023-05-10T02:01:13;95329.91;;;15.78
13219;BMP180;6674;49.152;11.918;2023-05-10T02:03:42;95327.31;;;15.78
13219;BMP180;6674;49.152;11.918;2023-05-10T02:06:10;95328.88;;;15.79
13219;BMP180;6674;49.152;11.918;2023-05-10T02:08:40;95319.25;;;15.74
13219;BMP180;6674;49.152;11.918;2023-05-10T02:11:07;95324.47;;;15.69
13219;BMP180;6674;49.152;11.918;2023-05-10T02:13:37;95328.34;;;15.67
13219;BMP180;6674;49.152;11.918;2023-05-10T02:16:05;95331.50;;;15.69
13219;BMP180;6674;49.152;11.918;2023-05-10T02:18:34;95332.00;;;15.66
13219;BMP180;6674;49.152;11.918;2023-05-10T02:21:03;95326.56;;;15.62
13219;BMP180;6674;49.152;11.918;2023-05-10T02:23:31;95326.00;;;15.60
13219;BMP180;6674;49.152;11.918;2023-05-10T02:25:58;95326.28;;;15.59
13219;BMP180;6674;49.152;11.918;2023-05-10T02:28:27;95323.97;;;15.53
13219;BMP180;6674;49.152;11.918;2023-05-10T02:30:55;95323.69;;;15.49
13219;BMP180;6674;49.152;11.918;2023-05-10T02:33:22;95321.34;;;15.43
13219;BMP180;6674;49.152;11.918;2023-05-10T02:35:50;95323.41;;;15.41
13219;BMP180;6674;49.152;11.918;2023-05-10T02:38:18;95327.34;;;15.38
13219;BMP180;6674;49.152;11.918;2023-05-10T02:40:47;95326.28;;;15.34
13219;BMP180;6674;49.152;11.918;2023-05-10T02:43:15;95319.78;;;15.32
13219;BMP180;6674;49.152;11.918;2023-05-10T02:45:43;95319.53;;;15.33
13219;BMP180;6674;49.152;11.918;2023-05-10T02:48:10;95317.44;;;15.30
13219;BMP180;6674;49.152;11.918;2023-05-10T02:50:37;95319.25;;;15.25
13219;BMP180;6674;49.152;11.918;2023-05-10T02:53:09;95310.94;;;15.23
13219;BMP180;6674;49.152;11.918;2023-05-10T02:55:40;95314.59;;;15.22
13219;BMP180;6674;49.152;11.918;2023-05-10T02:58:08;95310.94;;;15.23
13219;BMP180;6674;49.152;11.918;2023-05-10T03:00:35;95312.75;;;15.22
13219;BMP180;6674;49.152;11.918;2023-05-10T03:03:02;95329.38;;;15.21
13219;BMP180;6674;49.152;11.918;2023-05-10T03:05:28;95333.53;;;15.17
13219;BMP180;6674;49.152;11.918;2023-05-10T03:07:56;95317.91;;;15.08
13219;BMP180;6674;49.152;11.918;2023-05-10T03:10:27;95330.66;;;15.09
13219;BMP180;6674;49.152;11.918;2023-05-10T03:13:05;95324.41;;;15.05
13219;BMP180;6674;49.152;11.918;2023-05-10T03:15:38;95325.16;;;14.96
13219;BMP180;6674;49.152;11.918;2023-05-10T03:18:10;95326.47;;;14.93
13219;BMP180;6674;49.152;11.918;2023-05-10T03:20:41;95330.88;;;14.93
13219;BMP180;6674;49.152;11.918;2023-05-10T03:23:12;95327.72;;;14.91
13219;BMP180;6674;49.152;11.918;2023-05-10T03:25:40;95329.81;;;14.89
13219;BMP180;6674;49.152;11.918;2023-05-10T03:28:11;95342.25;;;14.82
13219;BMP180;6674;49.152;11.918;2023-05-10T03:30:39;95344.31;;;14.75
13219;BMP180;6674;49.152;11.918;2023-05-10T03:33:06;95344.00;;;14.62
13219;BMP180;6674;49.152;11.918;2023-05-10T03:35:33;95347.63;;;14.51
13219;BMP180;6674;49.152;11.918;2023-05-10T03:37:59;95346.78;;;14.45
13219;BMP180;6674;49.152;11.918;2023-05-10T03:40:27;95348.34;;;14.41
13219;BMP180;6674;49.152;11.918;2023-05-10T03:42:56;95349.63;;;14.39
13219;BMP180;6674;49.152;11.918;2023-05-10T03:45:24;95343.13;;;14.36
13219;BMP180;6674;49.152;11.918;2023-05-10T03:47:51;95348.56;;;14.35
13219;BMP180;6674;49.152;11.918;2023-05-10T03:50:18;95337.91;;;14.31
13219;BMP180;6674;49.152;11.918;2023-05-10T03:52:44;95344.13;;;14.30
13219;BMP180;6674;49.152;11.918;2023-05-10T03:55:11;95350.38;;;14.29
13219;BMP180;6674;49.152;11.918;2023-05-10T03:57:38;95351.88;;;14.25
13219;BMP180;6674;49.152;11.918;2023-05-10T04:00:06;95343.84;;;14.22
13219;BMP180;6674;49.152;11.918;2023-05-10T04:02:34;95346.69;;;14.21
13219;BMP180;6674;49.152;11.918;2023-05-10T04:05:00;95350.31;;;14.20
13219;BMP180;6674;49.152;11.918;2023-05-10T04:07:27;95353.44;;;14.22
13219;BMP180;6674;49.152;11.918;2023-05-10T04:09:54;95348.75;;;14.19
13219;BMP180;6674;49.152;11.918;2023-05-10T04:12:21;95350.59;;;14.23
13219;BMP180;6674;49.152;11.918;2023-05-10T04:14:47;95351.88;;;14.21
13219;BMP180;6674;49.152;11.918;2023-05-10T04:17:14;95351.63;;;14.22
13219;BMP180;6674;49.152;11.918;2023-05-10T04:19:42;95357.06;;;14.21
13219;BMP180;6674;49.152;11.918;2023-05-10T04:22:09;95362.25;;;14.21
13219;BMP180;6674;49.152;11.918;2023-05-10T04:24:35;95365.09;;;14.19
13219;BMP180;6674;49.152;11.918;2023-05-10T04:27:02;95362.25;;;14.21
13219;BMP180;6674;49.152;11.918;2023-05-10T04:29:29;95360.69;;;14.20
13219;BMP180;6674;49.152;11.918;2023-05-10T04:31:56;95367.16;;;14.17
13219;BMP180;6674;49.152;11.918;2023-05-10T04:34:23;95359.63;;;14.16
13219;BMP180;6674;49.152;11.918;2023-05-10T04:36:51;95364.81;;;14.16
13219;BMP180;6674;49.152;11.918;2023-05-10T04:39:17;95364.56;;;14.17
13219;BMP180;6674;49.152;11.918;2023-05-10T04:41:44;95370.50;;;14.13
13219;BMP180;6674;49.152;11.918;2023-05-10T04:44:10;95367.63;;;14.09
13219;BMP180;6674;49.152;11.918;2023-05-10T04:46:37;95367.88;;;14.08
13219;BMP180;6674;49.152;11.918;2023-05-10T04:49:05;95371.50;;;14.07
13219;BMP180;6674;49.152;11.918;2023-05-10T04:51:31;95375.13;;;14.06
13219;BMP180;6674;49.152;11.918;2023-05-10T04:54:00;95372.47;;;14.01
13219;BMP180;6674;49.152;11.918;2023-05-10T04:56:26;95378.69;;;14.00
13219;BMP180;6674;49.152;11.918;2023-05-10T04:58:53;95379.47;;;14.00
13219;BMP180;6674;49.152;11.918;2023-05-10T05:01:20;95378.63;;;13.95
13219;BMP180;6674;49.152;11.918;2023-05-10T05:03:48;95386.97;;;13.97
13219;BMP180;6674;49.152;11.918;2023-05-10T05:06:15;95392.16;;;13.97
13219;BMP180;6674;49.152;11.918;2023-05-10T05:08:41;95388.53;;;13.98
13219;BMP180;6674;49.152;11.918;2023-05-10T05:11:09;95392.19;;;14.02
13219;BMP180;6674;49.152;11.918;2023-05-10T05:13:36;95395.34;;;14.04
13219;BMP180;6674;49.152;11.918;2023-05-10T05:16:03;95399.47;;;14.05
13219;BMP180;6674;49.152;11.918;2023-05-10T05:18:30;95405.75;;;14.09
13219;BMP180;6674;49.152;11.918;2023-05-10T05:20:57;95408.34;;;14.09
13219;BMP180;6674;49.152;11.918;2023-05-10T05:23:23;95401.84;;;14.11
13219;BMP180;6674;49.152;11.918;2023-05-10T05:25:51;95414.09;;;14.16
13219;BMP180;6674;49.152;11.918;2023-05-10T05:28:20;95415.41;;;14.18
13219;BMP180;6674;49.152;11.918;2023-05-10T05:30:46;95414.63;;;14.23
13219;BMP180;6674;49.152;11.918;2023-05-10T05:33:13;95413.91;;;14.27
13219;BMP180;6674;49.152;11.918;2023-05-10T05:35:40;95421.44;;;14.28
13219;BMP180;6674;49.152;11.918;2023-05-10T05:38:08;95427.38;;;14.29
13219;BMP180;6674;49.152;11.918;2023-05-10T05:40:35;95416.53;;;14.32
13219;BMP180;6674;49.152;11.918;2023-05-10T05:43:02;95422.53;;;14.37
13219;BMP180;6674;49.152;11.918;2023-05-10T05:45:30;95424.59;;;14.40
13219;BMP180;6674;49.152;11.918;2023-05-10T05:47:57;95422.56;;;14.42
13219;BMP180;6674;49.152;11.918;2023-05-10T05:50:24;95436.34;;;14.48
13219;BMP180;6674;49.152;11.918;2023-05-10T05:52:50;95436.13;;;14.54
13219;BMP180;6674;49.152;11.918;2023-05-10T05:55:17;95432.50;;;14.55
13219;BMP180;6674;49.152;11.918;2023-05-10T05:57:44;95433.50;;;14.49
13219;BMP180;6674;49.152;11.918;2023-05-10T06:00:11;95441.31;;;14.54
13219;BMP180;6674;49.152;11.918;2023-05-10T06:02:40;95441.59;;;14.58
13219;BMP180;6674;49.152;11.918;2023-05-10T06:05:07;95435.91;;;14.61
13219;BMP180;6674;49.152;11.918;2023-05-10T06:07:34;95439.78;;;14.63
13219;BMP180;6674;49.152;11.918;2023-05-10T06:10:01;95450.75;;;14.70
13219;BMP180;6674;49.152;11.918;2023-05-10T06:12:28;95445.06;;;14.78
13219;BMP180;6674;49.152;11.918;2023-05-10T06:14:55;95448.19;;;14.80
13219;BMP180;6674;49.152;11.918;2023-05-10T06:17:25;95443.03;;;14.90
13219;BMP180;6674;49.152;11.918;2023-05-10T06:19:53;95449.03;;;14.95
13219;BMP180;6674;49.152;11.918;2023-05-10T06:22:19;95457.34;;;15.02
13219;BMP180;6674;49.152;11.918;2023-05-10T06:24:47;95458.94;;;15.08
13219;BMP180;6674;49.152;11.918;2023-05-10T06:27:14;95466.75;;;15.13
13219;BMP180;6674;49.152;11.918;2023-05-10T06:29:41;95466.28;;;15.16
13219;BMP180;6674;49.152;11.918;2023-05-10T06:32:07;95464.72;;;15.20
13219;BMP180;6674;49.152;11.918;2023-05-10T06:34:34;95468.09;;;15.15
13219;BMP180;6674;49.152;11.918;2023-05-10T06:37:02;95470.31;;;14.97
13219;BMP180;6674;49.152;11.918;2023-05-10T06:39:29;95475.63;;;14.66
13219;BMP180;6674;49.152;11.918;2023-05-10T06:41:56;95477.78;;;14.84
13219;BMP180;6674;49.152;11.918;2023-05-10T06:44:23;95471.84;;;14.88
13219;BMP180;6674;49.152;11.918;2023-05-10T06:46:50;95482.00;;;14.90
13219;BMP180;6674;49.152;11.918;2023-05-10T06:49:18;95485.59;;;14.84
13219;BMP180;6674;49.152;11.918;2023-05-10T06:51:45;95491.06;;;14.87
13219;BMP180;6674;49.152;11.918;2023-05-10T06:54:13;95488.13;;;14.74
13219;BMP180;6674;49.152;11.918;2023-05-10T06:56:40;95490.75;;;14.79
13219;BMP180;6674;49.152;11.918;2023-05-10T06:59:07;95489.53;;;14.50
13219;BMP180;6674;49.152;11.918;2023-05-10T07:01:34;95496.59;;;14.55
13219;BMP180;6674;49.152;11.918;2023-05-10T07:04:00;95498.19;;;14.61
13219;BMP180;6674;49.152;11.918;2023-05-10T07:06:27;95494.19;;;14.12
13219;BMP180;6674;49.152;11.918;2023-05-10T07:08:54;95498.56;;;14.38
13219;BMP180;6674;49.152;11.918;2023-05-10T07:11:22;95499.31;;;14.38
13219;BMP180;6674;49.152;11.918;2023-05-10T07:13:49;95497.91;;;14.57
13219;BMP180;6674;49.152;11.918;2023-05-10T07:16:15;95507.69;;;14.50
13219;BMP180;6674;49.152;11.918;2023-05-10T07:18:42;95504.06;;;14.46
13219;BMP180;6674;49.152;11.918;2023-05-10T07:21:09;95512.50;;;14.68
13219;BMP180;6674;49.152;11.918;2023-05-10T07:23:35;95515.38;;;14.67
13219;BMP180;6674;49.152;11.918;2023-05-10T07:26:02;95511.53;;;14.79
13219;BMP180;6674;49.152;11.918;2023-05-10T07:28:30;95512.25;;;14.69
13219;BMP180;6674;49.152;11.918;2023-05-10T07:30:57;95513.19;;;14.54
13219;BMP180;6674;49.152;11.918;2023-05-10T07:33:24;95515.88;;;14.68
13219;BMP180;6674;49.152;11.918;2023-05-10T07:35:51;95515.56;;;14.55
13219;BMP180;6674;49.152;11.918;2023-05-10T07:38:19;95526.59;;;14.82
13219;BMP180;6674;49.152;11.918;2023-05-10T07:40:47;95531.31;;;14.85
13219;BMP180;6674;49.152;11.918;2023-05-10T07:43:15;95534.38;;;14.77
13219;BMP180;6674;49.152;11.918;2023-05-10T07:45:45;95532.88;;;14.91
13219;BMP180;6674;49.152;11.918;2023-05-10T07:48:13;95532.94;;;15.01
13219;BMP180;6674;49.152;11.918;2023-05-10T07:50:41;95526.81;;;15.16
13219;BMP180;6674;49.152;11.918;2023-05-10T07:53:09;95533.97;;;15.00
13219;BMP180;6674;49.152;11.918;2023-05-10T07:55:36;95533.69;;;14.96
13219;BMP180;6674;49.152;11.918;2023-05-10T07:58:04;95535.69;;;15.25
13219;BMP180;6674;49.152;11.918;2023-05-10T08:00:32;95540.91;;;15.30
13219;BMP180;6674;49.152;11.918;2023-05-10T08:03:02;95541.84;;;15.14
13219;BMP180;6674;49.152;11.918;2023-05-10T08:05:29;95532.59;;;15.28
13219;BMP180;6674;49.152;11.918;2023-05-10T08:07:56;95545.94;;;15.01
13219;BMP180;6674;49.152;11.918;2023-05-10T08:10:24;95540.91;;;15.30
13219;BMP180;6674;49.152;11.918;2023-05-10T08:12:51;95543.50;;;15.30
13219;BMP180;6674;49.152;11.918;2023-05-10T08:15:18;95533.63;;;15.27
13219;BMP180;6674;49.152;11.918;2023-05-10T08:17:44;95540.44;;;15.43
13219;BMP180;6674;49.152;11.918;2023-05-10T08:20:12;95546.91;;;15.36
13219;BMP180;6674;49.152;11.918;2023-05-10T08:22:42;95554.22;;;15.49
13219;BMP180;6674;49.152;11.918;2023-05-10T08:25:08;95554.75;;;15.55
13219;BMP180;6674;49.152;11.918;2023-05-10T08:27:35;95552.47;;;15.64
13219;BMP180;6674;49.152;11.918;2023-05-10T08:30:02;95546.44;;;15.53
13219;BMP180;6674;49.152;11.918;2023-05-10T08:32:29;95563.59;;;15.45
13219;BMP180;6674;49.152;11.918;2023-05-10T08:34:56;95554.03;;;15.75
13219;BMP180;6674;49.152;11.918;2023-05-10T08:37:24;95552.97;;;15.61
13219;BMP180;6674;49.152;11.918;2023-05-10T08:39:51;95544.13;;;15.62
13219;BMP180;6674;49.152;11.918;2023-05-10T08:42:19;95557.13;;;15.62
13219;BMP180;6674;49.152;11.918;2023-05-10T08:44:48;95553.78;;;15.76
13219;BMP180;6674;49.152;11.918;2023-05-10T08:47:16;95559.25;;;15.85
13219;BMP180;6674;49.152;11.918;2023-05-10T08:49:47;95560.56;;;15.82
13219;BMP180;6674;49.152;11.918;2023-05-10T08:52:15;95581.16;;;15.98
13219;BMP180;6674;49.152;11.918;2023-05-10T08:54:44;95563.44;;;15.91
13219;BMP180;6674;49.152;11.918;2023-05-10T08:57:10;95557.25;;;16.06
13219;BMP180;6674;49.152;11.918;2023-05-10T08:59:37;95564.53;;;16.09
13219;BMP180;6674;49.152;11.918;2023-05-10T09:02:05;95566.59;;;16.12
13219;BMP180;6674;49.152;11.918;2023-05-10T09:04:31;95575.13;;;15.88
13219;BMP180;6674;49.152;11.918;2023-05-10T09:06:58;95565.50;;;15.79
13219;BMP180;6674;49.152;11.918;2023-05-10T09:09:25;95566.00;;;15.66
13219;BMP180;6674;49.152;11.918;2023-05-10T09:11:55;95578.38;;;15.49
13219;BMP180;6674;49.152;11.918;2023-05-10T09:14:23;95579.19;;;15.45
13219;BMP180;6674;49.152;11.918;2023-05-10T09:16:50;95579.97;;;15.50
13219;BMP180;6674;49.152;11.918;2023-05-10T09:19:19;95587.22;;;15.43
13219;BMP180;6674;49.152;11.918;2023-05-10T09:21:45;95591.34;;;15.39
13219;BMP180;6674;49.152;11.918;2023-05-10T09:24:12;95584.38;;;15.45
13219;BMP180;6674;49.152;11.918;2023-05-10T09:26:45;95599.44;;;15.48
13219;BMP180;6674;49.152;11.918;2023-05-10T09:29:15;95591.91;;;15.46
13219;BMP180;6674;49.152;11.918;2023-05-10T09:31:46;95588.81;;;15.54
13219;BMP180;6674;49.152;11.918;2023-05-10T09:34:16;95590.97;;;15.16
13219;BMP180;6674;49.152;11.918;2023-05-10T09:36:53;95589.19;;;15.21
13219;BMP180;6674;49.152;11.918;2023-05-10T09:39:29;95584.63;;;15.43
13219;BMP180;6674;49.152;11.918;2023-05-10T09:41:57;95591.63;;;15.43
13219;BMP180;6674;49.152;11.918;2023-05-10T09:44:27;95587.78;;;15.60
13219;BMP180;6674;49.152;11.918;2023-05-10T09:46:53;95587.78;;;15.60
13219;BMP180;6674;49.152;11.918;2023-05-10T09:49:20;95591.03;;;15.92
13219;BMP180;6674;49.152;11.918;2023-05-10T09:51:47;95593.22;;;15.53
13219;BMP180;6674;49.152;11.918;2023-05-10T09:54:23;95592.56;;;15.83
13219;BMP180;6674;49.152;11.918;2023-05-10T09:56:50;95591.03;;;15.92
13219;BMP180;6674;49.152;11.918;2023-05-10T09:59:18;95578.09;;;16.21
13219;BMP180;6674;49.152;11.918;2023-05-10T10:01:50;95573.94;;;16.20
13219;BMP180;6674;49.152;11.918;2023-05-10T10:04:17;95582.75;;;16.09
13219;BMP180;6674;49.152;11.918;2023-05-10T10:06:44;95577.59;;;16.59
13219;BMP180;6674;49.152;11.918;2023-05-10T10:09:11;95590.09;;;16.77
13219;BMP180;6674;49.152;11.918;2023-05-10T10:11:38;95580.19;;;16.79
13219;BMP180;6674;49.152;11.918;2023-05-10T10:14:06;95572.88;;;16.95
13219;BMP180;6674;49.152;11.918;2023-05-10T10:16:33;95574.94;;;17.13
13219;BMP180;6674;49.152;11.918;2023-05-10T10:19:01;95577.53;;;16.98
13219;BMP180;6674;49.152;11.918;2023-05-10T10:21:28;95565.03;;;17.20
13219;BMP180;6674;49.152;11.918;2023-05-10T10:23:56;95566.81;;;17.39
13219;BMP180;6674;49.152;11.918;2023-05-10T10:26:23;95570.59;;;17.67
13219;BMP180;6674;49.152;11.918;2023-05-10T10:28:59;95563.25;;;18.21
13219;BMP180;6674;49.152;11.918;2023-05-10T10:31:38;95559.09;;;18.54
13219;BMP180;6674;49.152;11.918;2023-05-10T10:34:08;95559.22;;;18.39
13219;BMP180;6674;49.152;11.918;2023-05-10T10:36:43;95554.53;;;18.36
13219;BMP180;6674;49.152;11.918;2023-05-10T10:39:11;95557.25;;;18.54
13219;BMP180;6674;49.152;11.918;2023-05-10T10:41:39;95555.78;;;18.76
13219;BMP180;6674;49.152;11.918;2023-05-10T10:44:35;95557.53;;;18.58
13219;BMP180;6674;49.152;11.918;2023-05-10T10:47:23;95555.69;;;18.20
13219;BMP180;6674;49.152;11.918;2023-05-10T10:50:04;95555.13;;;17.85
13219;BMP180;6674;49.152;11.918;2023-05-10T10:52:33;95551.16;;;17.92
13219;BMP180;6674;49.152;11.918;2023-05-10T10:55:02;95551.72;;;17.84
13219;BMP180;6674;49.152;11.918;2023-05-10T10:57:32;95555.28;;;17.50
13219;BMP180;6674;49.152;11.918;2023-05-10T11:00:21;95555.88;;;17.27
13219;BMP180;6674;49.152;11.918;2023-05-10T11:02:50;95546.16;;;17.48
13219;BMP180;6674;49.152;11.918;2023-05-10T11:05:36;95550.56;;;17.57
13219;BMP180;6674;49.152;11.918;2023-05-10T11:08:14;95552.03;;;17.73
13219;BMP180;6674;49.152;11.918;2023-05-10T11:11:05;95554.16;;;17.66
13219;BMP180;6674;49.152;11.918;2023-05-10T11:13:34;95548.19;;;17.66
13219;BMP180;6674;49.152;11.918;2023-05-10T11:16:18;95546.09;;;17.63
13219;BMP180;6674;49.152;11.918;2023-05-10T11:18:58;95547.69;;;17.59
13219;BMP180;6674;49.152;11.918;2023-05-10T11:21:26;95541.47;;;17.45
13219;BMP180;6674;49.152;11.918;2023-05-10T11:23:54;95556.53;;;17.63
13219;BMP180;6674;49.152;11.918;2023-05-10T11:26:23;95564.34;;;17.63
13219;BMP180;6674;49.152;11.918;2023-05-10T11:28:52;95555.50;;;17.64
13219;BMP180;6674;49.152;11.918;2023-05-10T11:31:20;95558.06;;;17.69
13219;BMP180;6674;49.152;11.918;2023-05-10T11:33:50;95554.28;;;17.41
13219;BMP180;6674;49.152;11.918;2023-05-10T11:36:18;95552.09;;;17.63
13219;BMP180;6674;49.152;11.918;2023-05-10T11:38:47;95559.03;;;17.82
13219;BMP180;6674;49.152;11.918;2023-05-10T11:41:17;95560.25;;;18.00
13219;BMP180;6674;49.152;11.918;2023-05-10T11:43:45;95557.81;;;18.18
13219;BMP180;6674;49.152;11.918;2023-05-10T11:46:13;95563.06;;;18.13
13219;BMP180;6674;49.152;11.918;2023-05-10T11:48:41;95565.72;;;18.03
13219;BMP180;6674;49.152;11.918;2023-05-10T11:51:09;95569.22;;;17.79
13219;BMP180;6674;49.152;11.918;2023-05-10T11:53:36;95566.84;;;17.82
13219;BMP180;6674;49.152;11.918;2023-05-10T11:56:05;95573.16;;;17.81
13219;BMP180;6674;49.152;11.918;2023-05-10T11:58:32;95571.06;;;17.78
13219;BMP180;6674;49.152;11.918;2023-05-10T12:00:59;95567.69;;;17.73
13219;BMP180;6674;49.152;11.918;2023-05-10T12:03:26;95567.66;;;17.78
13219;BMP180;6674;49.152;11.918;2023-05-10T12:05:54;95566.13;;;17.77
13219;BMP180;6674;49.152;11.918;2023-05-10T12:08:22;95566.38;;;17.75
13219;BMP180;6674;49.152;11.918;2023-05-10T12:10:49;95557.97;;;17.88
13219;BMP180;6674;49.152;11.918;2023-05-10T12:13:19;95557.91;;;17.98
13219;BMP180;6674;49.152;11.918;2023-05-10T12:15:46;95567.00;;;18.01
13219;BMP180;6674;49.152;11.918;2023-05-10T12:18:14;95560.72;;;18.12
13219;BMP180;6674;49.152;11.918;2023-05-10T12:20:41;95563.03;;;18.18
13219;BMP180;6674;49.152;11.918;2023-05-10T12:23:08;95561.19;;;17.71
13219;BMP180;6674;49.152;11.918;2023-05-10T12:25:36;95558.00;;;17.83
13219;BMP180;6674;49.152;11.918;2023-05-10T12:28:05;95558.47;;;17.90
13219;BMP180;6674;49.152;11.918;2023-05-10T12:30:34;95569.34;;;18.02
13219;BMP180;6674;49.152;11.918;2023-05-10T12:33:02;95564.09;;;18.12
13219;BMP180;6674;49.152;11.918;2023-05-10T12:35:30;95562.22;;;18.22
13219;BMP180;6674;49.152;11.918;2023-05-10T12:37:57;95576.06;;;18.18
13219;BMP180;6674;49.152;11.918;2023-05-10T12:40:24;95558.88;;;18.17
13219;BMP180;6674;49.152;11.918;2023-05-10T12:42:51;95560.84;;;18.35
13219;BMP180;6674;49.152;11.918;2023-05-10T12:45:18;95568.13;;;18.33
13219;BMP180;6674;49.152;11.918;2023-05-10T12:47:46;95571.97;;;18.45
13219;BMP180;6674;49.152;11.918;2023-05-10T12:50:13;95566.16;;;18.53
13219;BMP180;6674;49.152;11.918;2023-05-10T12:52:40;95571.34;;;18.58
13219;BMP180;6674;49.152;11.918;2023-05-10T12:55:07;95572.22;;;18.49
13219;BMP180;6674;49.152;11.918;2023-05-10T12:57:34;95572.72;;;18.51
13219;BMP180;6674;49.152;11.918;2023-05-10T13:00:01;95570.28;;;18.59
13219;BMP180;6674;49.152;11.918;2023-05-10T13:02:28;95569.97;;;18.65
13219;BMP180;6674;49.152;11.918;2023-05-10T13:04:56;95565.28;;;18.67
13219;BMP180;6674;49.152;11.918;2023-05-10T13:07:26;95569.97;;;18.65
13219;BMP180;6674;49.152;11.918;2023-05-10T13:09:52;95570.53;;;18.62
13219;BMP180;6674;49.152;11.918;2023-05-10T13:12:19;95572.59;;;18.65
13219;BMP180;6674;49.152;11.918;2023-05-10T13:14:47;95573.06;;;18.72
13219;BMP180;6674;49.152;11.918;2023-05-10T13:17:13;95574.59;;;18.73
13219;BMP180;6674;49.152;11.918;2023-05-10T13:19:40;95572.00;;;18.73
13219;BMP180;6674;49.152;11.918;2023-05-10T13:22:08;95567.28;;;18.75
13219;BMP180;6674;49.152;11.918;2023-05-10T13:24:35;95573.56;;;18.74
13219;BMP180;6674;49.152;11.918;2023-05-10T13:27:01;95577.22;;;18.73
13219;BMP180;6674;49.152;11.918;2023-05-10T13:29:28;95575.09;;;18.75
13219;BMP180;6674;49.152;11.918;2023-05-10T13:31:55;95574.56;;;18.78
13219;BMP180;6674;49.152;11.918;2023-05-10T13:34:22;95577.72;;;18.80
13219;BMP180;6674;49.152;11.918;2023-05-10T13:36:49;95576.63;;;18.81
13219;BMP180;6674;49.152;11.918;2023-05-10T13:39:18;95577.94;;;18.84
13219;BMP180;6674;49.152;11.918;2023-05-10T13:41:45;95577.66;;;18.85
13219;BMP180;6674;49.152;11.918;2023-05-10T13:44:12;95569.81;;;18.85
13219;BMP180;6674;49.152;11.918;2023-05-10T13:46:39;95569.81;;;18.85
13219;BMP180;6674;49.152;11.918;2023-05-10T13:49:06;95580.50;;;18.89
13219;BMP180;6674;49.152;11.918;2023-05-10T13:51:34;95566.03;;;18.96
13219;BMP180;6674;49.152;11.918;2023-05-10T13:54:01;95572.31;;;19.00
13219;BMP180;6674;49.152;11.918;2023-05-10T13:56:29;95568.44;;;18.93
13219;BMP180;6674;49.152;11.918;2023-05-10T13:58:57;95574.72;;;18.92
13219;BMP180;6674;49.152;11.918;2023-05-10T14:01:24;95564.78;;;18.94
13219;BMP180;6674;49.152;11.918;2023-05-10T14:03:51;95562.16;;;18.94
13219;BMP180;6674;49.152;11.918;2023-05-10T14:06:18;95577.19;;;18.78
13219;BMP180;6674;49.152;11.918;2023-05-10T14:08:45;95573.34;;;18.71
13219;BMP180;6674;49.152;11.918;2023-05-10T14:11:12;95569.50;;;18.58
13219;BMP180;6674;49.152;11.918;2023-05-10T14:13:40;95570.63;;;18.48
13219;BMP180;6674;49.152;11.918;2023-05-10T14:16:07;95568.09;;;18.38
13219;BMP180;6674;49.152;11.918;2023-05-10T14:18:34;95577.81;;;18.32